createdAt,value
2018-06-22T00:00:01.657Z,35.70
2018-06-22T00:02:30.182Z,36.10
2018-06-22T00:04:59.116Z,36.00
2018-06-22T00:07:28.795Z,35.80
2018-06-22T00:09:57.314Z,35.90
2018-06-22T00:12:26.205Z,35.90
2018-06-22T00:14:54.924Z,36.00
2018-06-22T00:17:23.493Z,36.10
2018-06-22T00:19:52.283Z,36.30
2018-06-22T00:22:21.054Z,36.40
2018-06-22T00:24:49.986Z,36.30
2018-06-22T00:27:18.540Z,36.30
2018-06-22T00:29:47.325Z,36.40
2018-06-22T00:32:15.988Z,36.40
2018-06-22T00:34:44.751Z,36.70
2018-06-22T00:37:13.292Z,36.90
2018-06-22T00:39:42.037Z,36.80
2018-06-22T00:42:10.562Z,36.70
2018-06-22T00:44:39.076Z,36.70
2018-06-22T00:47:07.738Z,37.00
2018-06-22T00:49:36.306Z,37.50
2018-06-22T00:52:04.863Z,37.40
2018-06-22T00:54:33.465Z,37.40
2018-06-22T00:57:02.049Z,37.80
2018-06-22T00:59:30.892Z,38.70
2018-06-22T01:01:59.611Z,38.30
2018-06-22T01:04:28.281Z,38.50
2018-06-22T01:06:56.852Z,38.70
2018-06-22T01:09:25.487Z,39.60
2018-06-22T01:11:54.020Z,38.90
2018-06-22T01:14:22.611Z,39.20
2018-06-22T01:16:51.135Z,39.20
2018-06-22T01:19:20.021Z,39.30
2018-06-22T01:21:48.590Z,39.30
2018-06-22T01:24:17.484Z,39.20
2018-06-22T01:26:46.392Z,39.40
2018-06-22T01:29:20.098Z,39.70
2018-06-22T01:31:48.627Z,39.90
2018-06-22T01:34:17.174Z,40.10
2018-06-22T01:36:45.690Z,40.30
2018-06-22T01:39:14.264Z,40.60
2018-06-22T01:41:43.098Z,41.00
2018-06-22T01:44:11.783Z,41.30
2018-06-22T01:46:40.627Z,41.10
2018-06-22T01:49:09.472Z,41.40
2018-06-22T01:51:38.230Z,41.80
2018-06-22T01:54:06.845Z,42.00
2018-06-22T01:56:35.359Z,42.20
2018-06-22T01:59:03.884Z,42.10
2018-06-22T02:01:32.614Z,42.20
2018-06-22T02:04:01.156Z,43.10
2018-06-22T02:06:29.821Z,42.40
2018-06-22T02:08:58.483Z,42.10
2018-06-22T02:11:27.280Z,41.90
2018-06-22T02:13:55.791Z,42.10
2018-06-22T02:16:24.370Z,41.70
2018-06-22T02:18:52.892Z,41.70
2018-06-22T02:21:21.412Z,41.90
2018-06-22T02:23:49.959Z,41.60
2018-06-22T02:26:19.376Z,41.90
2018-06-22T02:28:47.945Z,42.20
2018-06-22T02:31:16.508Z,42.30
2018-06-22T02:33:45.019Z,42.60
2018-06-22T02:36:13.600Z,43.00
2018-06-22T02:38:42.110Z,42.50
2018-06-22T02:41:11.155Z,42.40
2018-06-22T02:43:39.774Z,42.20
2018-06-22T02:46:08.472Z,42.30
2018-06-22T02:48:37.124Z,42.50
2018-06-22T02:51:05.689Z,42.70
2018-06-22T02:53:34.343Z,42.70
2018-06-22T02:56:02.813Z,42.90
2018-06-22T02:58:31.378Z,43.10
2018-06-22T03:01:00.005Z,43.10
2018-06-22T03:03:28.550Z,43.10
2018-06-22T03:05:57.056Z,43.80
2018-06-22T03:08:25.627Z,43.60
2018-06-22T03:10:54.472Z,43.60
2018-06-22T03:13:23.007Z,43.70
2018-06-22T03:15:51.780Z,43.50
2018-06-22T03:18:20.572Z,43.20
2018-06-22T03:20:49.072Z,43.20
2018-06-22T03:23:17.717Z,42.90
2018-06-22T03:25:46.316Z,43.10
2018-06-22T03:28:15.164Z,43.10
2018-06-22T03:30:43.668Z,43.30
2018-06-22T03:33:12.259Z,43.50
2018-06-22T03:35:40.913Z,43.70
2018-06-22T03:38:09.740Z,43.80
2018-06-22T03:40:38.357Z,43.60
2018-06-22T03:43:07.489Z,43.60
2018-06-22T03:45:36.226Z,43.60
2018-06-22T03:48:05.803Z,43.80
2018-06-22T03:50:34.327Z,43.60
2018-06-22T03:53:03.444Z,44.20
2018-06-22T03:55:32.149Z,44.60
2018-06-22T03:58:00.884Z,44.70
2018-06-22T04:00:29.777Z,44.60
2018-06-22T04:02:58.276Z,44.70
2018-06-22T04:05:27.456Z,44.80
2018-06-22T04:07:55.939Z,44.70
2018-06-22T04:10:24.435Z,44.70
2018-06-22T04:12:52.982Z,44.80
2018-06-22T04:15:21.951Z,44.80
2018-06-22T04:17:52.802Z,44.60
2018-06-22T04:20:22.620Z,44.40
2018-06-22T04:22:52.305Z,44.20
2018-06-22T04:25:22.031Z,44.20
2018-06-22T04:27:51.518Z,44.20
2018-06-22T04:30:20.536Z,44.40
2018-06-22T04:32:50.395Z,44.50
2018-06-22T04:37:47.363Z,45.00
2018-06-22T04:40:15.933Z,45.10
2018-06-22T04:42:44.597Z,45.40
2018-06-22T04:45:13.325Z,45.60
2018-06-22T04:47:41.945Z,45.60
2018-06-22T04:50:10.701Z,45.30
2018-06-22T04:52:39.595Z,45.10
2018-06-22T04:55:08.318Z,45.00
2018-06-22T04:57:36.865Z,45.20
2018-06-22T05:00:06.055Z,45.20
2018-06-22T05:02:34.576Z,45.30
2018-06-22T05:05:03.123Z,45.30
2018-06-22T05:07:31.956Z,45.50
2018-06-22T05:10:00.578Z,45.80
2018-06-22T05:12:29.421Z,45.70
2018-06-22T05:14:58.107Z,45.70
2018-06-22T05:17:27.022Z,45.30
2018-06-22T05:19:55.629Z,45.30
2018-06-22T05:22:24.475Z,45.20
2018-06-22T05:24:53.202Z,45.50
2018-06-22T05:27:21.760Z,45.50
2018-06-22T05:29:50.504Z,45.40
2018-06-22T05:32:19.168Z,45.40
2018-06-22T05:37:16.401Z,45.70
2018-06-22T05:39:45.411Z,45.70
2018-06-22T05:42:14.008Z,45.70
2018-06-22T05:44:43.540Z,45.60
2018-06-22T05:47:12.140Z,45.70
2018-06-22T05:49:41.564Z,45.40
2018-06-22T05:52:10.567Z,45.70
2018-06-22T05:54:39.171Z,45.50
2018-06-22T05:57:07.752Z,45.60
2018-06-22T05:59:36.515Z,45.80
2018-06-22T06:02:05.489Z,45.80
2018-06-22T06:04:34.023Z,45.60
2018-06-22T06:07:02.644Z,45.40
2018-06-22T06:09:32.114Z,45.60
2018-06-22T06:12:00.935Z,45.70
2018-06-22T06:14:29.978Z,45.70
2018-06-22T06:16:58.722Z,45.60
2018-06-22T06:19:27.800Z,45.60
2018-06-22T06:21:56.675Z,45.10
2018-06-22T06:24:28.072Z,45.20
2018-06-22T06:26:58.003Z,44.80
2018-06-22T06:29:27.163Z,45.40
2018-06-22T06:31:56.007Z,45.10
2018-06-22T06:34:25.941Z,44.90
2018-06-22T06:36:55.236Z,45.00
2018-06-22T06:39:24.215Z,44.80
2018-06-22T06:41:54.388Z,44.60
2018-06-22T06:44:23.752Z,44.40
2018-06-22T06:46:52.916Z,44.00
2018-06-22T06:49:21.627Z,43.80
2018-06-22T06:51:51.390Z,43.70
2018-06-22T06:54:20.494Z,43.40
2018-06-22T06:56:50.510Z,41.10
2018-06-22T06:59:20.061Z,40.30
2018-06-22T07:01:48.654Z,38.60
2018-06-22T07:04:18.721Z,38.50
2018-06-22T07:06:47.462Z,38.40
2018-06-22T07:09:17.504Z,38.00
2018-06-22T07:11:46.577Z,38.20
2018-06-22T07:16:43.750Z,38.60
2018-06-22T07:19:12.313Z,38.00
2018-06-22T07:21:40.932Z,38.30
2018-06-22T07:24:11.009Z,38.30
2018-06-22T07:26:40.989Z,38.10
2018-06-22T07:29:10.735Z,38.40
2018-06-22T07:31:39.751Z,38.10
2018-06-22T07:34:13.032Z,38.00
2018-06-22T07:36:45.466Z,38.00
2018-06-22T07:39:16.944Z,37.20
2018-06-22T07:41:49.791Z,37.10
2018-06-22T07:44:20.127Z,37.70
2018-06-22T07:46:48.758Z,37.50
2018-06-22T07:49:18.613Z,37.30
2018-06-22T07:51:47.646Z,37.50
2018-06-22T07:54:16.332Z,37.00
2018-06-22T07:56:45.402Z,37.10
2018-06-22T07:59:14.394Z,36.90
2018-06-22T08:01:43.576Z,37.30
2018-06-22T08:04:13.417Z,37.30
2018-06-22T08:06:42.953Z,37.60
2018-06-22T08:09:11.659Z,37.60
2018-06-22T08:11:40.703Z,38.10
2018-06-22T08:14:10.029Z,38.50
2018-06-22T08:16:39.098Z,39.10
2018-06-22T08:19:09.022Z,39.30
2018-06-22T08:21:38.677Z,39.60
2018-06-22T08:24:10.483Z,38.80
2018-06-22T08:26:40.764Z,39.20
2018-06-22T08:29:13.272Z,38.00
2018-06-22T08:31:50.064Z,37.70
2018-06-22T08:34:24.956Z,38.40
2018-06-22T08:36:53.783Z,38.70
2018-06-22T08:39:28.121Z,38.60
2018-06-22T08:41:59.435Z,38.60
2018-06-22T08:44:31.942Z,38.60
2018-06-22T08:47:02.373Z,38.40
2018-06-22T08:49:36.347Z,38.60
2018-06-22T08:52:09.288Z,38.50
2018-06-22T08:54:40.386Z,39.30
2018-06-22T08:57:11.842Z,39.10
2018-06-22T08:59:41.478Z,39.40
2018-06-22T09:02:10.600Z,39.10
2018-06-22T09:04:41.175Z,38.70
2018-06-22T09:07:14.980Z,38.90
2018-06-22T09:09:49.606Z,38.60
2018-06-22T09:12:22.033Z,38.40
2018-06-22T09:14:51.862Z,39.20
2018-06-22T09:17:24.914Z,38.60
2018-06-22T09:19:58.423Z,38.10
2018-06-22T09:22:31.392Z,37.70
2018-06-22T09:25:07.269Z,38.10
2018-06-22T09:27:39.451Z,37.50
2018-06-22T09:32:48.257Z,38.10
2018-06-22T09:35:19.953Z,38.00
2018-06-22T09:37:49.611Z,37.80
2018-06-22T09:40:18.930Z,37.90
2018-06-22T09:42:56.767Z,37.80
2018-06-22T09:45:31.489Z,37.50
2018-06-22T09:48:01.865Z,37.80
2018-06-22T09:50:33.328Z,37.60
2018-06-22T09:53:07.478Z,38.40
2018-06-22T09:55:37.483Z,38.00
2018-06-22T09:58:11.191Z,37.50
2018-06-22T10:00:46.229Z,37.50
2018-06-22T10:03:17.163Z,37.20
2018-06-22T10:05:46.854Z,36.90
2018-06-22T10:08:15.927Z,36.10
2018-06-22T10:10:44.706Z,36.70
2018-06-22T10:13:14.111Z,37.10
2018-06-22T10:15:52.051Z,37.20
2018-06-22T10:18:22.919Z,37.20
2018-06-22T10:20:51.834Z,37.80
2018-06-22T10:23:20.383Z,36.90
2018-06-22T10:25:50.780Z,36.90
2018-06-22T10:28:19.967Z,37.10
2018-06-22T10:30:48.873Z,37.00
2018-06-22T10:33:17.845Z,36.90
2018-06-22T10:35:46.646Z,37.20
2018-06-22T10:38:15.325Z,37.40
2018-06-22T10:40:44.110Z,37.90
2018-06-22T10:43:13.259Z,38.40
2018-06-22T10:45:42.156Z,38.50
2018-06-22T10:48:10.812Z,38.20
2018-06-22T10:50:39.583Z,38.50
2018-06-22T10:53:09.736Z,38.60
2018-06-22T10:55:39.592Z,38.60
2018-06-22T10:58:08.281Z,38.90
2018-06-22T11:00:36.880Z,39.30
2018-06-22T11:03:06.051Z,39.20
2018-06-22T11:05:35.289Z,39.20
2018-06-22T11:08:04.103Z,39.00
2018-06-22T11:10:33.349Z,38.70
2018-06-22T11:13:01.948Z,38.50
2018-06-22T11:15:30.709Z,38.60
2018-06-22T11:17:59.293Z,38.30
2018-06-22T11:20:28.080Z,37.50
2018-06-22T11:22:57.074Z,37.70
2018-06-22T11:25:26.307Z,38.00
2018-06-22T11:27:54.910Z,38.20
2018-06-22T11:30:24.150Z,37.90
2018-06-22T11:32:53.068Z,38.20
2018-06-22T11:35:21.670Z,38.20
2018-06-22T11:37:50.219Z,38.30
2018-06-22T11:40:19.039Z,38.30
2018-06-22T11:42:47.609Z,38.60
2018-06-22T11:45:16.330Z,38.70
2018-06-22T11:47:44.932Z,38.40
2018-06-22T11:50:13.939Z,38.30
2018-06-22T11:52:42.849Z,38.50
2018-06-22T11:55:12.473Z,38.10
2018-06-22T11:57:41.346Z,38.30
2018-06-22T12:00:09.999Z,39.40
2018-06-22T12:02:38.867Z,38.40
2018-06-22T12:05:07.533Z,38.50
2018-06-22T12:07:36.198Z,38.50
2018-06-22T12:10:04.935Z,38.60
2018-06-22T12:12:33.771Z,39.00
2018-06-22T12:15:02.561Z,38.80
2018-06-22T12:17:31.308Z,38.80
2018-06-22T12:19:59.932Z,38.70
2018-06-22T12:22:28.617Z,38.80
2018-06-22T12:24:57.482Z,38.70
2018-06-22T12:27:26.906Z,38.80
2018-06-22T12:29:55.795Z,38.80
2018-06-22T12:32:24.398Z,39.10
2018-06-22T12:34:53.291Z,39.30
2018-06-22T12:37:22.064Z,39.10
2018-06-22T12:39:51.262Z,39.10
2018-06-22T12:42:20.956Z,39.20
2018-06-22T12:44:49.588Z,39.50
2018-06-22T12:47:18.231Z,39.40
2018-06-22T12:49:46.926Z,39.30
2018-06-22T12:52:15.471Z,39.10
2018-06-22T12:54:44.656Z,39.10
2018-06-22T12:57:13.246Z,39.10
2018-06-22T12:59:41.981Z,39.00
2018-06-22T13:02:10.843Z,39.20
2018-06-22T13:04:39.852Z,39.10
2018-06-22T13:07:08.564Z,39.20
2018-06-22T13:09:37.130Z,39.60
2018-06-22T13:12:05.839Z,39.40
2018-06-22T13:14:34.514Z,39.70
2018-06-22T13:17:03.242Z,39.40
2018-06-22T13:19:32.997Z,39.40
2018-06-22T13:22:02.355Z,39.40
2018-06-22T13:24:30.943Z,39.20
2018-06-22T13:29:28.589Z,38.60
2018-06-22T13:31:57.259Z,38.70
2018-06-22T13:34:25.781Z,38.70
2018-06-22T13:36:54.510Z,38.80
2018-06-22T13:39:23.303Z,38.80
2018-06-22T13:41:51.924Z,38.90
2018-06-22T13:44:21.476Z,38.80
2018-06-22T13:46:51.502Z,38.60
2018-06-22T13:49:21.383Z,38.70
2018-06-22T13:51:50.076Z,38.20
2018-06-22T13:54:18.812Z,38.00
2018-06-22T13:56:47.469Z,38.10
2018-06-22T13:59:16.131Z,38.50
2018-06-22T14:01:45.614Z,38.60
2018-06-22T14:04:19.589Z,38.90
2018-06-22T14:06:52.668Z,39.20
2018-06-22T14:09:21.731Z,39.30
2018-06-22T14:11:50.500Z,38.90
2018-06-22T14:14:19.323Z,38.90
2018-06-22T14:16:48.102Z,38.50
2018-06-22T14:21:45.227Z,38.20
2018-06-22T14:24:13.963Z,38.10
2018-06-22T14:26:42.637Z,37.90
2018-06-22T14:29:11.604Z,37.60
2018-06-22T14:31:40.179Z,37.40
2018-06-22T14:34:08.973Z,37.00
2018-06-22T14:36:37.610Z,37.00
2018-06-22T14:39:08.183Z,36.60
2018-06-22T14:41:37.725Z,36.80
2018-06-22T14:44:06.600Z,37.20
2018-06-22T14:46:35.655Z,37.40
2018-06-22T14:49:04.329Z,37.50
2018-06-22T14:51:33.194Z,37.40
2018-06-22T14:56:08.566Z,37.50
2018-06-22T14:58:42.316Z,37.80
2018-06-22T15:01:16.208Z,37.50
2018-06-22T15:03:50.065Z,37.80
2018-06-22T15:06:24.342Z,38.10
2018-06-22T15:08:53.140Z,35.80
2018-06-22T15:11:21.944Z,34.90
2018-06-22T15:13:52.042Z,34.80
2018-06-22T15:16:20.975Z,34.90
2018-06-22T15:18:49.879Z,34.90
2018-06-22T15:21:18.948Z,34.70
2018-06-22T15:23:47.616Z,34.90
2018-06-22T15:26:16.504Z,35.00
2018-06-22T15:28:46.440Z,34.90
2018-06-22T15:31:15.309Z,35.00
2018-06-22T15:33:48.998Z,35.30
2018-06-22T15:36:22.720Z,35.00
2018-06-22T15:38:56.919Z,34.70
2018-06-22T15:41:30.949Z,34.00
2018-06-22T15:44:05.226Z,34.10
2018-06-22T15:46:39.789Z,34.00
2018-06-22T15:49:14.132Z,34.50
2018-06-22T15:51:48.119Z,34.00
2018-06-22T15:54:22.648Z,34.20
2018-06-22T15:56:51.431Z,33.70
2018-06-22T15:59:20.509Z,33.90
2018-06-22T16:01:49.166Z,34.40
2018-06-22T16:04:18.657Z,35.00
2018-06-22T16:06:47.523Z,35.20
2018-06-22T16:09:16.208Z,34.40
2018-06-22T16:11:44.818Z,34.10
2018-06-22T16:14:18.672Z,34.10
2018-06-22T16:16:52.506Z,35.00
2018-06-22T16:19:26.383Z,34.90
2018-06-22T16:22:00.313Z,34.50
2018-06-22T16:24:34.282Z,34.20
2018-06-22T16:27:09.209Z,33.70
2018-06-22T16:29:37.990Z,32.80
2018-06-22T16:32:06.566Z,32.60
2018-06-22T16:34:35.172Z,32.10
2018-06-22T16:37:04.367Z,32.40
2018-06-22T16:39:33.202Z,32.40
2018-06-22T16:42:02.471Z,32.30
2018-06-22T16:44:31.027Z,32.30
2018-06-22T16:46:59.791Z,32.30
2018-06-22T16:49:28.321Z,32.30
2018-06-22T16:51:57.319Z,32.50
2018-06-22T16:54:25.874Z,33.10
2018-06-22T16:56:54.555Z,33.20
2018-06-22T16:59:23.319Z,33.30
2018-06-22T17:01:51.961Z,33.50
2018-06-22T17:04:20.903Z,33.60
2018-06-22T17:06:54.761Z,33.30
2018-06-22T17:09:28.651Z,33.10
2018-06-22T17:12:02.509Z,32.90
2018-06-22T17:14:36.473Z,33.10
2018-06-22T17:17:10.384Z,32.60
2018-06-22T17:19:39.173Z,32.80
2018-06-22T17:22:07.701Z,33.00
2018-06-22T17:24:36.403Z,32.90
2018-06-22T17:27:05.345Z,32.90
2018-06-22T17:29:34.020Z,33.10
2018-06-22T17:32:02.761Z,33.70
2018-06-22T17:34:31.611Z,34.10
2018-06-22T17:37:00.563Z,34.60
2018-06-22T17:39:30.419Z,34.90
2018-06-22T17:42:00.427Z,35.00
2018-06-22T17:44:29.118Z,35.00
2018-06-22T17:46:58.218Z,35.00
2018-06-22T17:49:27.271Z,35.10
2018-06-22T17:51:56.079Z,35.30
2018-06-22T17:54:25.032Z,35.50
2018-06-22T17:56:53.723Z,36.00
2018-06-22T17:59:27.647Z,35.00
2018-06-22T18:02:01.604Z,34.90
2018-06-22T18:04:37.247Z,35.10
2018-06-22T18:07:11.290Z,35.00
2018-06-22T18:09:45.288Z,35.20
2018-06-22T18:12:20.028Z,35.10
2018-06-22T18:14:48.558Z,35.10
2018-06-22T18:17:17.982Z,35.10
2018-06-22T18:19:46.622Z,35.30
2018-06-22T18:22:15.288Z,35.40
2018-06-22T18:24:44.329Z,35.30
2018-06-22T18:27:12.917Z,35.30
2018-06-22T18:29:41.567Z,35.60
2018-06-22T18:32:10.184Z,35.70
2018-06-22T18:34:39.204Z,35.70
2018-06-22T18:37:07.988Z,35.40
2018-06-22T18:39:36.554Z,35.10
2018-06-22T18:42:05.324Z,35.30
2018-06-22T18:44:34.287Z,35.40
2018-06-22T18:47:03.136Z,35.30
2018-06-22T18:49:31.869Z,35.40
2018-06-22T18:52:05.802Z,35.50
2018-06-22T18:57:13.654Z,35.80
2018-06-22T18:59:46.899Z,36.50
2018-06-22T19:02:21.055Z,36.10
2018-06-22T19:04:49.592Z,36.20
2018-06-22T19:07:18.222Z,36.30
2018-06-22T19:09:46.975Z,36.50
2018-06-22T19:12:16.141Z,36.70
2018-06-22T19:14:44.847Z,36.80
2018-06-22T19:19:41.775Z,37.00
2018-06-22T19:22:11.241Z,36.80
2018-06-22T19:24:39.958Z,37.20
2018-06-22T19:27:09.267Z,37.60
2018-06-22T19:29:39.081Z,38.00
2018-06-22T19:32:07.665Z,37.70
2018-06-22T19:34:41.843Z,38.20
2018-06-22T19:37:10.775Z,38.80
2018-06-22T19:39:39.626Z,38.50
2018-06-22T19:42:09.754Z,38.70
2018-06-22T19:44:43.887Z,38.90
2018-06-22T19:47:17.671Z,39.10
2018-06-22T19:49:51.825Z,39.30
2018-06-22T19:52:26.196Z,39.50
2018-06-22T19:57:23.457Z,40.00
2018-06-22T19:59:52.204Z,40.20
2018-06-22T20:02:20.784Z,40.30
2018-06-22T20:04:49.405Z,40.40
2018-06-22T20:07:18.599Z,40.60
2018-06-22T20:09:47.427Z,41.30
2018-06-22T20:12:16.999Z,40.70
2018-06-22T20:14:45.847Z,40.80
2018-06-22T20:17:14.594Z,41.20
2018-06-22T20:22:12.815Z,41.40
2018-06-22T20:24:48.172Z,41.30
2018-06-22T20:27:17.153Z,41.40
2018-06-22T20:29:46.021Z,41.60
2018-06-22T20:32:15.714Z,41.80
2018-06-22T20:36:57.671Z,42.50
2018-06-22T20:39:31.734Z,43.10
2018-06-22T20:42:05.613Z,44.10
2018-06-22T20:44:39.775Z,44.20
2018-06-22T20:47:13.575Z,44.40
2018-06-22T20:49:47.359Z,44.50
2018-06-22T20:52:15.963Z,44.60
2018-06-22T20:54:45.620Z,44.90
2018-06-22T20:57:14.323Z,45.00
2018-06-22T20:59:42.881Z,44.90
2018-06-22T21:02:11.386Z,45.10
2018-06-22T21:04:40.266Z,45.30
2018-06-22T21:07:08.833Z,45.20
2018-06-22T21:09:37.543Z,45.30
2018-06-22T21:12:06.478Z,45.50
2018-06-22T21:14:35.076Z,45.70
2018-06-22T21:17:03.735Z,45.90
2018-06-22T21:19:32.368Z,45.70
2018-06-22T21:22:06.180Z,45.90
2018-06-22T21:24:34.731Z,46.10
2018-06-22T21:27:08.686Z,46.30
2018-06-22T21:29:43.017Z,46.40
2018-06-22T21:32:17.103Z,46.50
2018-06-22T21:34:51.088Z,46.80
2018-06-22T21:37:25.010Z,47.00
2018-06-22T21:39:53.641Z,47.10
2018-06-22T21:42:22.655Z,46.90
2018-06-22T21:44:51.823Z,47.00
2018-06-22T21:47:20.941Z,47.20
2018-06-22T21:49:49.580Z,47.40
2018-06-22T21:52:18.173Z,47.50
2018-06-22T21:54:47.240Z,47.60
2018-06-22T21:57:15.901Z,47.60
2018-06-22T21:59:44.486Z,47.70
2018-06-22T22:02:13.336Z,47.80
2018-06-22T22:04:42.590Z,47.60
2018-06-22T22:07:11.185Z,47.80
2018-06-22T22:09:42.263Z,47.90
2018-06-22T22:12:11.171Z,48.10
2018-06-22T22:14:40.548Z,48.20
2018-06-22T22:17:09.337Z,48.40
2018-06-22T22:19:38.788Z,48.50
2018-06-22T22:22:08.372Z,48.70
2018-06-22T22:24:36.986Z,48.50
2018-06-22T22:27:05.630Z,48.60
2018-06-22T22:29:34.316Z,48.50
2018-06-22T22:32:02.889Z,48.50
2018-06-22T22:34:31.495Z,48.70
2018-06-22T22:37:00.082Z,48.90
2018-06-22T22:39:28.692Z,49.00
2018-06-22T22:41:57.838Z,49.00
2018-06-22T22:44:26.424Z,49.00
2018-06-22T22:46:54.980Z,49.00
2018-06-22T22:49:23.593Z,49.00
2018-06-22T22:51:53.924Z,49.20
2018-06-22T22:54:23.267Z,49.50
2018-06-22T22:56:51.910Z,49.50
2018-06-22T22:59:20.553Z,49.40
2018-06-22T23:01:49.242Z,49.40
2018-06-22T23:04:17.936Z,49.40
2018-06-22T23:06:46.423Z,49.40
2018-06-22T23:09:15.036Z,49.40
2018-06-22T23:11:43.529Z,49.50
2018-06-22T23:14:13.033Z,49.50
2018-06-22T23:16:41.563Z,49.70
2018-06-22T23:19:10.111Z,49.60
2018-06-22T23:21:38.603Z,49.80
2018-06-22T23:24:07.318Z,49.60
2018-06-22T23:26:36.108Z,49.60
2018-06-22T23:29:04.795Z,49.70
2018-06-22T23:31:33.375Z,50.30
2018-06-22T23:34:02.133Z,49.60
2018-06-22T23:36:30.705Z,49.50
2018-06-22T23:38:59.295Z,49.80
2018-06-22T23:41:28.232Z,49.80
2018-06-22T23:43:57.456Z,50.10
2018-06-22T23:46:26.060Z,50.00
2018-06-22T23:48:54.594Z,50.10
2018-06-22T23:51:23.076Z,50.20
2018-06-22T23:53:51.631Z,50.30
2018-06-22T23:56:20.253Z,50.60
2018-06-22T23:58:48.787Z,50.80
